createdAt,value
2022-09-12T00:02:09.925Z,16.44
2022-09-12T00:04:36.335Z,16.44
2022-09-12T00:07:02.741Z,16.42
2022-09-12T00:09:29.161Z,16.41
2022-09-12T00:11:55.555Z,16.40
2022-09-12T00:14:21.949Z,16.39
2022-09-12T00:16:48.441Z,16.39
2022-09-12T00:19:15.268Z,16.39
2022-09-12T00:21:41.777Z,16.37
2022-09-12T00:24:09.661Z,16.36
2022-09-12T00:26:36.162Z,16.37
2022-09-12T00:29:02.568Z,16.39
2022-09-12T00:31:29.364Z,16.40
2022-09-12T00:33:57.418Z,16.39
2022-09-12T00:36:25.347Z,16.38
2022-09-12T00:38:52.060Z,16.37
2022-09-12T00:41:22.144Z,16.36
2022-09-12T00:43:55.948Z,16.35
2022-09-12T00:46:49.189Z,16.35
2022-09-12T00:49:24.480Z,16.36
2022-09-12T00:51:54.479Z,16.36
2022-09-12T00:54:23.044Z,16.38
2022-09-12T00:56:50.339Z,16.38
2022-09-12T00:59:19.574Z,16.36
2022-09-12T01:01:48.994Z,16.36
2022-09-12T01:04:16.056Z,16.35
2022-09-12T01:06:43.994Z,16.36
2022-09-12T01:09:13.442Z,16.36
2022-09-12T01:11:40.272Z,16.35
2022-09-12T01:14:07.494Z,16.34
2022-09-12T01:16:37.628Z,16.33
2022-09-12T01:19:04.006Z,16.30
2022-09-12T01:21:55.846Z,16.31
2022-09-12T01:24:40.738Z,16.29
2022-09-12T01:27:19.087Z,16.28
2022-09-12T01:29:56.744Z,16.29
2022-09-12T01:32:41.876Z,16.27
2022-09-12T01:35:22.853Z,16.28
2022-09-12T01:38:03.278Z,16.29
2022-09-12T01:40:35.106Z,16.28
2022-09-12T01:43:26.278Z,16.27
2022-09-12T01:46:03.164Z,16.24
2022-09-12T01:48:35.762Z,16.22
2022-09-12T01:51:13.918Z,16.22
2022-09-12T01:53:44.397Z,16.19
2022-09-12T01:56:26.545Z,16.17
2022-09-12T01:59:35.632Z,16.14
2022-09-12T02:02:08.156Z,16.12
2022-09-12T02:04:58.540Z,16.09
2022-09-12T02:07:37.381Z,16.05
2022-09-12T02:10:12.936Z,16.02
2022-09-12T02:12:44.494Z,16.00
2022-09-12T02:15:12.366Z,15.97
2022-09-12T02:17:43.359Z,15.94
2022-09-12T02:20:44.066Z,15.94
2022-09-12T02:23:09.498Z,15.91
2022-09-12T02:25:38.071Z,15.91
2022-09-12T02:28:07.100Z,15.87
2022-09-12T02:30:52.243Z,15.85
2022-09-12T02:33:26.664Z,15.80
2022-09-12T02:36:04.237Z,15.78
2022-09-12T02:38:44.500Z,15.74
2022-09-12T02:41:12.229Z,15.71
2022-09-12T02:43:38.747Z,15.70
2022-09-12T02:46:12.670Z,15.67
2022-09-12T02:48:41.614Z,15.67
2022-09-12T02:51:08.234Z,15.62
2022-09-12T02:53:35.772Z,15.59
2022-09-12T02:56:02.873Z,15.58
2022-09-12T02:58:31.412Z,15.54
2022-09-12T03:01:23.461Z,15.52
2022-09-12T03:04:11.752Z,15.50
2022-09-12T03:06:50.175Z,15.48
2022-09-12T03:09:20.816Z,15.46
2022-09-12T03:11:59.175Z,15.45
2022-09-12T03:15:02.712Z,15.40
2022-09-12T03:17:57.180Z,15.36
2022-09-12T03:20:44.500Z,15.34
2022-09-12T03:23:26.022Z,15.32
2022-09-12T03:26:04.188Z,15.29
2022-09-12T03:28:31.301Z,15.28
2022-09-12T03:30:58.082Z,15.28
2022-09-12T03:33:25.525Z,15.28
2022-09-12T03:35:53.106Z,15.26
2022-09-12T03:38:19.956Z,15.24
2022-09-12T03:40:47.792Z,15.20
2022-09-12T03:43:16.748Z,15.17
2022-09-12T03:45:43.194Z,15.16
2022-09-12T03:48:09.682Z,15.15
2022-09-12T03:50:36.079Z,15.11
2022-09-12T03:53:03.199Z,15.09
2022-09-12T03:55:29.752Z,15.07
2022-09-12T03:57:56.479Z,15.06
2022-09-12T04:00:22.918Z,15.07
2022-09-12T04:02:53.592Z,15.07
2022-09-12T04:05:19.988Z,15.06
2022-09-12T04:07:46.362Z,15.05
2022-09-12T04:10:12.760Z,15.02
2022-09-12T04:12:39.493Z,14.99
2022-09-12T04:15:07.458Z,14.95
2022-09-12T04:17:34.706Z,14.94
2022-09-12T04:20:01.179Z,14.94
2022-09-12T04:22:28.153Z,14.91
2022-09-12T04:24:54.555Z,14.91
2022-09-12T04:27:21.051Z,14.89
2022-09-12T04:29:47.461Z,14.85
2022-09-12T04:32:15.058Z,14.85
2022-09-12T04:34:41.743Z,14.81
2022-09-12T04:37:08.170Z,14.78
2022-09-12T04:39:34.578Z,14.76
2022-09-12T04:42:00.974Z,14.75
2022-09-12T04:44:27.383Z,14.76
2022-09-12T04:46:53.766Z,14.75
2022-09-12T04:49:20.159Z,14.73
2022-09-12T04:51:46.851Z,14.73
2022-09-12T04:54:15.874Z,14.73
2022-09-12T04:56:44.938Z,14.72
2022-09-12T04:59:12.872Z,14.70
2022-09-12T05:01:39.406Z,14.68
2022-09-12T05:04:05.878Z,14.68
2022-09-12T05:06:34.557Z,14.66
2022-09-12T05:09:02.101Z,14.65
2022-09-12T05:12:00.114Z,14.68
2022-09-12T05:14:20.499Z,14.69
2022-09-12T05:16:49.426Z,14.71
2022-09-12T05:19:16.260Z,14.73
2022-09-12T05:21:42.729Z,14.74
2022-09-12T05:24:10.630Z,14.76
2022-09-12T05:26:37.050Z,14.77
2022-09-12T05:29:04.413Z,14.78
2022-09-12T05:31:30.810Z,14.81
2022-09-12T05:33:57.587Z,14.84
2022-09-12T05:36:27.953Z,14.87
2022-09-12T05:38:54.402Z,14.91
2022-09-12T05:41:26.433Z,14.95
2022-09-12T05:43:54.424Z,15.00
2022-09-12T05:46:22.300Z,15.04
2022-09-12T05:48:55.128Z,15.07
2022-09-12T05:51:25.426Z,15.11
2022-09-12T05:54:00.254Z,15.14
2022-09-12T05:56:28.541Z,15.19
2022-09-12T05:59:00.960Z,15.25
2022-09-12T06:01:28.395Z,15.31
2022-09-12T06:03:57.814Z,15.34
2022-09-12T06:06:25.138Z,15.36
2022-09-12T06:08:53.882Z,15.37
2022-09-12T06:11:23.006Z,15.42
2022-09-12T06:13:50.989Z,15.44
2022-09-12T06:16:19.539Z,15.48
2022-09-12T06:18:53.845Z,15.52
2022-09-12T06:21:21.296Z,15.55
2022-09-12T06:23:48.086Z,15.59
2022-09-12T06:26:16.764Z,15.63
2022-09-12T06:28:44.964Z,15.67
2022-09-12T06:31:17.314Z,15.70
2022-09-12T06:33:45.763Z,15.77
2022-09-12T06:36:19.127Z,15.78
2022-09-12T06:38:46.376Z,15.81
2022-09-12T06:41:13.622Z,15.82
2022-09-12T06:43:41.154Z,15.83
2022-09-12T06:46:08.412Z,15.86
2022-09-12T06:48:39.602Z,15.88
2022-09-12T06:51:13.410Z,15.91
2022-09-12T06:53:39.938Z,15.99
2022-09-12T06:56:09.678Z,16.08
2022-09-12T06:58:36.845Z,16.17
2022-09-12T07:01:09.449Z,16.26
2022-09-12T07:03:36.668Z,16.34
2022-09-12T07:06:04.367Z,16.41
2022-09-12T07:08:31.730Z,16.50
2022-09-12T07:11:10.249Z,16.58
2022-09-12T07:13:36.639Z,16.69
2022-09-12T07:16:04.195Z,16.72
2022-09-12T07:18:31.442Z,16.74
2022-09-12T07:21:02.791Z,16.79
2022-09-12T07:23:29.865Z,16.89
2022-09-12T07:25:57.660Z,16.97
2022-09-12T07:28:25.165Z,17.04
2022-09-12T07:30:53.857Z,17.11
2022-09-12T07:33:21.513Z,17.18
2022-09-12T07:35:47.963Z,17.25
2022-09-12T07:38:14.353Z,17.33
2022-09-12T07:40:40.838Z,17.35
2022-09-12T07:43:07.280Z,17.41
2022-09-12T07:45:33.849Z,17.47
2022-09-12T07:48:00.360Z,17.54
2022-09-12T07:50:26.863Z,17.59
2022-09-12T07:52:56.489Z,17.63
2022-09-12T07:55:23.191Z,17.74
2022-09-12T07:57:50.876Z,17.77
2022-09-12T08:00:18.210Z,17.86
2022-09-12T08:02:44.817Z,17.92
2022-09-12T08:05:11.488Z,17.99
2022-09-12T08:07:38.227Z,18.03
2022-09-12T08:10:06.481Z,18.12
2022-09-12T08:12:34.543Z,18.15
2022-09-12T08:15:00.966Z,18.23
2022-09-12T08:17:27.371Z,18.28
2022-09-12T08:19:53.748Z,18.33
2022-09-12T08:22:21.899Z,18.41
2022-09-12T08:24:49.567Z,18.47
2022-09-12T08:27:16.335Z,18.52
2022-09-12T08:29:42.701Z,18.60
2022-09-12T08:32:09.102Z,18.67
2022-09-12T08:34:35.761Z,18.73
2022-09-12T08:37:02.175Z,18.78
2022-09-12T08:39:28.606Z,18.79
2022-09-12T08:42:01.381Z,18.86
2022-09-12T08:44:51.733Z,18.92
2022-09-12T08:47:21.246Z,18.97
2022-09-12T08:49:58.859Z,19.01
2022-09-12T08:52:46.502Z,19.02
2022-09-12T08:55:34.756Z,19.09
2022-09-12T08:58:10.033Z,19.15
2022-09-12T09:00:59.525Z,19.23
2022-09-12T09:03:49.192Z,19.29
2022-09-12T09:06:33.682Z,19.37
2022-09-12T09:09:33.478Z,19.42
2022-09-12T09:12:07.700Z,19.39
2022-09-12T09:14:53.165Z,19.41
2022-09-12T09:17:35.031Z,19.51
2022-09-12T09:20:13.394Z,19.58
2022-09-12T09:22:48.434Z,19.63
2022-09-12T09:25:24.430Z,19.68
2022-09-12T09:28:02.188Z,19.73
2022-09-12T09:30:28.809Z,19.75
2022-09-12T09:32:57.882Z,19.80
2022-09-12T09:35:46.307Z,19.82
2022-09-12T09:38:43.142Z,19.92
2022-09-12T09:41:56.696Z,20.03
2022-09-12T09:44:23.469Z,20.13
2022-09-12T09:46:54.339Z,20.24
2022-09-12T09:49:21.284Z,20.25
2022-09-12T09:51:48.299Z,20.30
2022-09-12T09:54:19.849Z,20.33
2022-09-12T09:56:46.262Z,20.33
2022-09-12T09:59:29.962Z,20.31
2022-09-12T10:02:24.661Z,20.32
2022-09-12T10:04:57.527Z,20.35
2022-09-12T10:07:24.686Z,20.37
2022-09-12T10:10:17.250Z,20.43
2022-09-12T10:12:44.116Z,20.52
2022-09-12T10:15:19.614Z,20.60
2022-09-12T10:17:48.086Z,20.67
2022-09-12T10:20:44.401Z,20.77
2022-09-12T10:23:37.438Z,20.86
2022-09-12T10:26:12.574Z,20.95
2022-09-12T10:28:41.327Z,21.04
2022-09-12T10:31:09.734Z,21.14
2022-09-12T10:33:43.603Z,21.22
2022-09-12T10:36:10.054Z,21.29
2022-09-12T10:38:36.779Z,21.32
2022-09-12T10:41:06.498Z,21.39
2022-09-12T10:43:33.075Z,21.43
2022-09-12T10:46:20.452Z,21.55
2022-09-12T10:48:51.499Z,21.57
2022-09-12T10:51:24.018Z,21.68
2022-09-12T10:54:10.274Z,21.72
2022-09-12T10:56:51.384Z,21.75
2022-09-12T10:59:25.793Z,21.91
2022-09-12T11:02:12.522Z,22.00
2022-09-12T11:05:03.908Z,22.04
2022-09-12T11:08:14.964Z,22.11
2022-09-12T11:10:56.957Z,22.17
2022-09-12T11:13:28.262Z,22.25
2022-09-12T11:16:10.691Z,22.28
2022-09-12T11:19:04.011Z,22.34
2022-09-12T11:22:16.148Z,22.39
2022-09-12T11:25:12.861Z,22.49
2022-09-12T11:28:03.693Z,22.59
2022-09-12T11:30:49.538Z,22.61
2022-09-12T11:33:30.406Z,22.70
2022-09-12T11:35:57.780Z,22.72
2022-09-12T11:38:43.110Z,22.81
2022-09-12T11:41:26.209Z,22.80
2022-09-12T11:44:19.060Z,22.79
2022-09-12T11:46:48.741Z,22.73
2022-09-12T11:49:31.376Z,22.66
2022-09-12T11:52:20.982Z,22.75
2022-09-12T11:55:04.505Z,22.79
2022-09-12T11:57:35.919Z,22.79
2022-09-12T12:00:05.924Z,22.86
2022-09-12T12:02:40.392Z,22.89
2022-09-12T12:05:29.840Z,22.93
2022-09-12T12:07:58.706Z,22.96
2022-09-12T12:10:36.198Z,22.97
2022-09-12T12:13:13.366Z,23.01
2022-09-12T12:15:45.977Z,23.06
2022-09-12T12:18:19.130Z,23.08
2022-09-12T12:20:45.834Z,23.08
2022-09-12T12:23:31.293Z,23.16
2022-09-12T12:25:59.832Z,23.18
2022-09-12T12:28:52.425Z,23.20
2022-09-12T12:31:18.962Z,23.21
2022-09-12T12:33:45.296Z,23.23
2022-09-12T12:36:30.793Z,23.22
2022-09-12T12:38:57.314Z,23.20
2022-09-12T12:41:24.001Z,23.22
2022-09-12T12:43:52.212Z,23.23
2022-09-12T12:46:20.422Z,23.14
2022-09-12T12:48:53.732Z,23.18
2022-09-12T12:51:23.477Z,23.20
2022-09-12T12:53:50.770Z,23.24
2022-09-12T12:56:34.885Z,23.29
2022-09-12T12:59:03.872Z,23.33
2022-09-12T13:01:30.691Z,23.38
2022-09-12T13:04:01.502Z,23.47
2022-09-12T13:07:08.358Z,23.52
2022-09-12T13:09:45.362Z,23.57
2022-09-12T13:12:19.635Z,23.61
2022-09-12T13:14:51.398Z,23.65
2022-09-12T13:17:28.245Z,23.70
2022-09-12T13:20:27.896Z,23.78
2022-09-12T13:22:55.343Z,23.79
2022-09-12T13:25:23.882Z,23.79
2022-09-12T13:28:07.478Z,23.81
2022-09-12T13:30:36.979Z,23.82
2022-09-12T13:33:16.470Z,23.83
2022-09-12T13:35:58.042Z,23.84
2022-09-12T13:38:42.894Z,23.89
2022-09-12T13:41:21.284Z,23.96
2022-09-12T13:43:48.114Z,23.92
2022-09-12T13:46:17.836Z,23.99
2022-09-12T13:48:44.422Z,24.02
2022-09-12T13:51:23.029Z,24.07
2022-09-12T13:53:50.628Z,24.08
2022-09-12T13:56:17.872Z,24.07
2022-09-12T13:58:58.770Z,24.07
2022-09-12T14:01:37.988Z,24.07
2022-09-12T14:04:38.418Z,24.06
2022-09-12T14:07:19.537Z,24.04
2022-09-12T14:09:53.867Z,24.04
2022-09-12T14:12:36.665Z,24.02
2022-09-12T14:15:03.846Z,24.01
2022-09-12T14:17:36.172Z,23.98
2022-09-12T14:20:07.045Z,24.00
2022-09-12T14:22:34.697Z,24.00
2022-09-12T14:25:01.927Z,24.00
2022-09-12T14:27:50.759Z,24.01
2022-09-12T14:30:26.446Z,24.02
2022-09-12T14:33:05.921Z,24.03
2022-09-12T14:35:33.148Z,24.07
2022-09-12T14:38:26.715Z,24.11
2022-09-12T14:41:01.586Z,24.15
2022-09-12T14:43:30.624Z,24.21
2022-09-12T14:46:02.871Z,24.27
2022-09-12T14:48:32.304Z,24.31
2022-09-12T14:50:59.054Z,24.34
2022-09-12T14:53:34.817Z,24.37
2022-09-12T14:56:12.486Z,24.33
2022-09-12T14:58:40.429Z,24.41
2022-09-12T15:01:07.129Z,24.43
2022-09-12T15:03:49.403Z,24.43
2022-09-12T15:06:32.978Z,24.39
2022-09-12T15:09:00.788Z,24.41
2022-09-12T15:11:27.443Z,24.41
2022-09-12T15:13:53.846Z,24.39
2022-09-12T15:16:20.498Z,24.38
2022-09-12T15:18:46.936Z,24.35
2022-09-12T15:21:17.104Z,24.34
2022-09-12T15:23:50.179Z,24.30
2022-09-12T15:26:22.475Z,24.24
2022-09-12T15:28:49.519Z,24.25
2022-09-12T15:31:22.780Z,24.26
2022-09-12T15:33:49.308Z,24.28
2022-09-12T15:36:17.582Z,24.27
2022-09-12T15:38:44.992Z,24.25
2022-09-12T15:41:15.008Z,24.26
2022-09-12T15:43:41.444Z,24.24
2022-09-12T15:46:11.625Z,24.24
2022-09-12T15:48:38.351Z,24.28
2022-09-12T15:51:05.796Z,24.28
2022-09-12T15:53:32.263Z,24.30
2022-09-12T15:55:58.725Z,24.32
2022-09-12T15:58:25.227Z,24.34
2022-09-12T16:00:51.628Z,24.38
2022-09-12T16:03:22.829Z,24.41
2022-09-12T16:05:50.001Z,24.40
2022-09-12T16:08:16.408Z,24.40
2022-09-12T16:10:43.475Z,24.40
2022-09-12T16:13:09.880Z,24.41
2022-09-12T16:15:37.635Z,24.38
2022-09-12T16:18:04.130Z,24.35
2022-09-12T16:20:30.528Z,24.33
2022-09-12T16:22:56.923Z,24.32
2022-09-12T16:25:23.338Z,24.26
2022-09-12T16:27:50.000Z,24.20
2022-09-12T16:30:16.476Z,24.15
2022-09-12T16:32:42.897Z,24.11
2022-09-12T16:35:09.736Z,24.11
2022-09-12T16:37:36.469Z,24.08
2022-09-12T16:40:04.089Z,24.03
2022-09-12T16:42:30.737Z,23.99
2022-09-12T16:44:57.133Z,23.96
2022-09-12T16:47:23.527Z,23.99
2022-09-12T16:49:51.164Z,23.99
2022-09-12T16:52:17.621Z,24.11
2022-09-12T16:54:46.804Z,24.34
2022-09-12T16:57:13.199Z,24.44
2022-09-12T16:59:39.657Z,24.46
2022-09-12T17:02:06.356Z,24.33
2022-09-12T17:04:32.886Z,24.22
2022-09-12T17:06:59.569Z,24.09
2022-09-12T17:09:27.377Z,23.99
2022-09-12T17:11:53.797Z,23.88
2022-09-12T17:14:20.209Z,23.79
2022-09-12T17:16:51.504Z,23.70
2022-09-12T17:19:26.443Z,23.59
2022-09-12T17:21:53.408Z,23.50
2022-09-12T17:24:20.136Z,23.41
2022-09-12T17:26:46.561Z,23.31
2022-09-12T17:29:13.924Z,23.21
2022-09-12T17:31:41.240Z,23.14
2022-09-12T17:34:07.994Z,23.02
2022-09-12T17:36:34.489Z,22.94
2022-09-12T17:39:03.594Z,22.85
2022-09-12T17:41:31.850Z,22.79
2022-09-12T17:43:59.662Z,22.70
2022-09-12T17:46:32.835Z,22.63
2022-09-12T17:49:00.905Z,22.57
2022-09-12T17:51:30.575Z,22.49
2022-09-12T17:54:05.471Z,22.42
2022-09-12T17:56:33.231Z,22.34
2022-09-12T17:58:59.954Z,22.30
2022-09-12T18:01:45.509Z,22.24
2022-09-12T18:04:12.163Z,22.17
2022-09-12T18:06:39.989Z,22.11
2022-09-12T18:09:08.477Z,22.05
2022-09-12T18:11:35.435Z,22.02
2022-09-12T18:14:02.597Z,21.98
2022-09-12T18:16:29.002Z,21.93
2022-09-12T18:18:55.547Z,21.89
2022-09-12T18:21:22.011Z,21.85
2022-09-12T18:23:48.421Z,21.81
2022-09-12T18:26:14.979Z,21.77
2022-09-12T18:28:42.756Z,21.73
2022-09-12T18:31:15.272Z,21.70
2022-09-12T18:33:42.134Z,21.64
2022-09-12T18:36:10.624Z,21.58
2022-09-12T18:38:37.630Z,21.49
2022-09-12T18:41:18.308Z,21.45
2022-09-12T18:43:45.101Z,21.40
2022-09-12T18:46:13.423Z,21.36
2022-09-12T18:48:40.031Z,21.33
2022-09-12T18:51:09.839Z,21.29
2022-09-12T18:53:36.981Z,21.25
2022-09-12T18:56:08.627Z,21.22
2022-09-12T18:58:40.497Z,21.18
2022-09-12T19:01:16.006Z,21.14
2022-09-12T19:03:42.770Z,21.09
2022-09-12T19:06:17.654Z,21.07
2022-09-12T19:08:44.565Z,21.04
2022-09-12T19:11:11.311Z,21.00
2022-09-12T19:13:39.714Z,20.98
2022-09-12T19:16:09.292Z,20.96
2022-09-12T19:18:37.004Z,20.92
2022-09-12T19:21:13.842Z,20.90
2022-09-12T19:23:40.349Z,20.87
2022-09-12T19:26:08.563Z,20.81
2022-09-12T19:28:35.374Z,20.75
2022-09-12T19:31:09.991Z,20.72
2022-09-12T19:33:36.862Z,20.71
2022-09-12T19:36:27.290Z,20.67
2022-09-12T19:38:55.451Z,20.63
2022-09-12T19:41:21.916Z,20.61
2022-09-12T19:43:48.333Z,20.58
2022-09-12T19:46:17.250Z,20.55
2022-09-12T19:48:44.853Z,20.51
2022-09-12T19:51:11.849Z,20.47
2022-09-12T19:53:38.347Z,20.43
2022-09-12T19:56:05.798Z,20.40
2022-09-12T19:58:35.514Z,20.37
2022-09-12T20:01:14.352Z,20.34
2022-09-12T20:03:41.187Z,20.27
2022-09-12T20:06:09.751Z,20.26
2022-09-12T20:08:45.639Z,20.22
2022-09-12T20:11:13.898Z,20.19
2022-09-12T20:13:41.139Z,20.17
2022-09-12T20:16:21.698Z,20.13
2022-09-12T20:18:55.976Z,20.09
2022-09-12T20:21:25.256Z,20.05
2022-09-12T20:23:51.928Z,20.02
2022-09-12T20:26:20.175Z,20.00
2022-09-12T20:28:46.677Z,19.99
2022-09-12T20:31:15.695Z,19.95
2022-09-12T20:33:42.836Z,19.93
2022-09-12T20:36:16.073Z,19.90
2022-09-12T20:38:47.485Z,19.84
2022-09-12T20:41:13.936Z,19.83
2022-09-12T20:43:40.841Z,19.81
2022-09-12T20:46:09.783Z,19.78
2022-09-12T20:48:37.005Z,19.76
2022-09-12T20:51:03.903Z,19.76
2022-09-12T20:53:34.708Z,19.72
2022-09-12T20:56:01.920Z,19.71
2022-09-12T20:58:28.320Z,19.66
2022-09-12T21:00:54.749Z,19.63
2022-09-12T21:03:21.160Z,19.60
2022-09-12T21:05:47.607Z,19.57
2022-09-12T21:08:14.318Z,19.55
2022-09-12T21:10:42.045Z,19.53
2022-09-12T21:13:10.253Z,19.49
2022-09-12T21:15:38.510Z,19.46
2022-09-12T21:18:05.348Z,19.44
2022-09-12T21:20:32.434Z,19.39
2022-09-12T21:22:59.099Z,19.35
2022-09-12T21:25:25.559Z,19.31
2022-09-12T21:27:51.974Z,19.28
2022-09-12T21:30:18.371Z,19.28
2022-09-12T21:32:44.826Z,19.26
2022-09-12T21:35:11.279Z,19.25
2022-09-12T21:37:37.732Z,19.21
2022-09-12T21:40:04.448Z,19.17
2022-09-12T21:42:31.711Z,19.16
2022-09-12T21:44:58.116Z,19.13
2022-09-12T21:47:24.645Z,19.10
2022-09-12T21:49:51.052Z,19.08
2022-09-12T21:52:17.439Z,19.07
2022-09-12T21:54:43.850Z,19.04
2022-09-12T21:57:10.228Z,19.01
2022-09-12T21:59:36.666Z,18.98
2022-09-12T22:02:03.135Z,18.95
2022-09-12T22:04:30.853Z,18.94
2022-09-12T22:06:57.494Z,18.92
2022-09-12T22:09:23.883Z,18.90
2022-09-12T22:11:50.298Z,18.86
2022-09-12T22:14:17.469Z,18.83
2022-09-12T22:16:43.988Z,18.81
2022-09-12T22:19:10.369Z,18.78
2022-09-12T22:21:56.719Z,18.75
2022-09-12T22:24:29.488Z,18.73
2022-09-12T22:26:57.366Z,18.69
2022-09-12T22:29:23.756Z,18.67
2022-09-12T22:31:50.345Z,18.63
2022-09-12T22:34:16.874Z,18.60
2022-09-12T22:36:43.820Z,18.58
2022-09-12T22:39:10.216Z,18.56
2022-09-12T22:41:36.602Z,18.52
2022-09-12T22:44:03.093Z,18.48
2022-09-12T22:46:30.442Z,18.46
2022-09-12T22:48:56.907Z,18.42
2022-09-12T22:51:23.542Z,18.40
2022-09-12T22:53:49.974Z,18.35
2022-09-12T22:56:16.364Z,18.32
2022-09-12T22:58:43.489Z,18.28
2022-09-12T23:01:10.758Z,18.27
2022-09-12T23:03:37.451Z,18.26
2022-09-12T23:06:04.607Z,18.24
2022-09-12T23:08:31.093Z,18.21
2022-09-12T23:11:09.393Z,18.18
2022-09-12T23:13:37.001Z,18.16
2022-09-12T23:16:05.950Z,18.14
2022-09-12T23:18:35.410Z,18.13
2022-09-12T23:21:04.592Z,18.09
2022-09-12T23:23:31.301Z,18.05
2022-09-12T23:26:14.009Z,18.03
2022-09-12T23:28:41.645Z,18.02
2022-09-12T23:31:09.656Z,17.99
2022-09-12T23:33:36.245Z,17.96
2022-09-12T23:36:07.942Z,17.94
2022-09-12T23:38:35.507Z,17.92
2022-09-12T23:41:03.300Z,17.91
2022-09-12T23:43:30.316Z,17.89
2022-09-12T23:45:57.740Z,17.87
2022-09-12T23:48:24.241Z,17.85
2022-09-12T23:50:50.673Z,17.84
2022-09-12T23:53:17.622Z,17.80
2022-09-12T23:55:44.851Z,17.81
2022-09-12T23:58:11.853Z,17.78
